createdAt,value
2019-06-26T00:00:51.257Z,24.98
2019-06-26T00:03:18.806Z,24.90
2019-06-26T00:05:45.937Z,24.85
2019-06-26T00:08:13.184Z,24.87
2019-06-26T00:10:40.328Z,24.87
2019-06-26T00:13:07.532Z,24.81
2019-06-26T00:15:34.677Z,24.73
2019-06-26T00:18:01.903Z,24.69
2019-06-26T00:20:29.055Z,24.64
2019-06-26T00:23:01.592Z,24.43
2019-06-26T00:25:28.708Z,24.40
2019-06-26T00:27:56.058Z,24.46
2019-06-26T00:30:23.191Z,24.42
2019-06-26T00:32:50.423Z,24.36
2019-06-26T00:35:17.666Z,24.38
2019-06-26T00:37:44.993Z,24.35
2019-06-26T00:40:13.124Z,24.40
2019-06-26T00:42:40.356Z,24.35
2019-06-26T00:45:07.784Z,24.28
2019-06-26T00:47:35.161Z,24.21
2019-06-26T00:50:03.397Z,24.19
2019-06-26T00:52:31.047Z,24.24
2019-06-26T00:54:58.181Z,24.19
2019-06-26T00:57:25.317Z,24.12
2019-06-26T00:59:52.560Z,24.04
2019-06-26T01:02:19.893Z,23.95
2019-06-26T01:04:48.953Z,24.02
2019-06-26T01:07:16.296Z,24.08
2019-06-26T01:09:43.582Z,23.92
2019-06-26T01:12:10.801Z,23.76
2019-06-26T01:14:38.028Z,23.87
2019-06-26T01:17:05.372Z,23.75
2019-06-26T01:19:32.913Z,23.83
2019-06-26T01:22:00.046Z,23.66
2019-06-26T01:24:27.383Z,23.58
2019-06-26T01:26:54.727Z,23.51
2019-06-26T01:29:21.982Z,23.46
2019-06-26T01:31:49.317Z,23.43
2019-06-26T01:34:16.446Z,23.38
2019-06-26T01:36:43.694Z,23.51
2019-06-26T01:39:10.931Z,23.45
2019-06-26T01:41:38.388Z,23.42
2019-06-26T01:44:14.635Z,23.26
2019-06-26T01:46:34.780Z,23.26
2019-06-26T01:49:01.921Z,23.33
2019-06-26T01:51:29.144Z,23.23
2019-06-26T01:53:56.312Z,23.12
2019-06-26T01:56:23.546Z,23.15
2019-06-26T01:58:50.776Z,23.07
2019-06-26T02:01:18.137Z,23.09
2019-06-26T02:03:46.092Z,23.03
2019-06-26T02:06:13.445Z,23.12
2019-06-26T02:08:40.694Z,23.09
2019-06-26T02:11:08.036Z,23.01
2019-06-26T02:13:35.256Z,22.90
2019-06-26T02:16:02.594Z,22.86
2019-06-26T02:18:40.163Z,22.86
2019-06-26T02:21:07.524Z,22.86
2019-06-26T02:23:34.775Z,22.87
2019-06-26T02:26:01.970Z,22.80
2019-06-26T02:28:29.256Z,22.86
2019-06-26T02:30:56.627Z,22.83
2019-06-26T02:33:23.956Z,22.79
2019-06-26T02:35:51.402Z,22.79
2019-06-26T02:38:18.538Z,22.74
2019-06-26T02:40:45.879Z,22.82
2019-06-26T02:43:13.733Z,22.65
2019-06-26T02:45:40.914Z,22.57
2019-06-26T02:48:08.161Z,22.50
2019-06-26T02:50:35.378Z,22.50
2019-06-26T02:53:02.716Z,22.48
2019-06-26T02:55:29.957Z,22.47
2019-06-26T02:57:57.100Z,22.55
2019-06-26T03:00:24.328Z,22.48
2019-06-26T03:02:51.563Z,22.51
2019-06-26T03:05:18.696Z,22.42
2019-06-26T03:07:45.932Z,22.42
2019-06-26T03:10:13.963Z,22.32
2019-06-26T03:12:41.195Z,22.18
2019-06-26T03:15:09.852Z,22.28
2019-06-26T03:17:51.019Z,22.23
2019-06-26T03:20:07.463Z,22.21
2019-06-26T03:22:34.697Z,22.25
2019-06-26T03:25:02.014Z,22.27
2019-06-26T03:27:29.215Z,22.08
2019-06-26T03:29:56.359Z,22.10
2019-06-26T03:32:23.497Z,22.18
2019-06-26T03:34:50.752Z,22.15
2019-06-26T03:37:17.997Z,22.04
2019-06-26T03:39:45.126Z,22.02
2019-06-26T03:42:12.589Z,22.01
2019-06-26T03:44:39.723Z,22.05
2019-06-26T03:47:06.861Z,22.08
2019-06-26T03:49:34.097Z,22.09
2019-06-26T03:52:01.428Z,22.10
2019-06-26T03:54:28.662Z,22.14
2019-06-26T03:56:56.009Z,22.16
2019-06-26T03:59:23.260Z,22.15
2019-06-26T04:01:50.485Z,22.20
2019-06-26T04:04:17.617Z,22.19
2019-06-26T04:06:44.741Z,22.30
2019-06-26T04:09:11.893Z,22.32
2019-06-26T04:11:39.128Z,22.40
2019-06-26T04:14:06.771Z,22.36
2019-06-26T04:16:34.006Z,22.36
2019-06-26T04:19:01.123Z,22.41
2019-06-26T04:21:28.358Z,22.50
2019-06-26T04:23:55.586Z,22.50
2019-06-26T04:26:22.842Z,22.58
2019-06-26T04:28:50.041Z,22.58
2019-06-26T04:31:17.173Z,22.69
2019-06-26T04:33:44.335Z,22.71
2019-06-26T04:36:11.617Z,22.76
2019-06-26T04:38:38.950Z,22.75
2019-06-26T04:41:06.093Z,22.82
2019-06-26T04:43:33.590Z,22.97
2019-06-26T04:46:00.847Z,22.98
2019-06-26T04:48:27.977Z,23.04
2019-06-26T04:50:55.336Z,23.26
2019-06-26T04:53:22.564Z,23.40
2019-06-26T04:55:49.803Z,23.74
2019-06-26T04:58:16.951Z,24.13
2019-06-26T05:00:44.182Z,24.59
2019-06-26T05:03:11.607Z,25.17
2019-06-26T05:05:40.130Z,25.72
2019-06-26T05:08:07.471Z,26.10
2019-06-26T05:10:34.643Z,26.75
2019-06-26T05:13:01.794Z,27.31
2019-06-26T05:15:28.928Z,27.85
2019-06-26T05:17:56.281Z,28.27
2019-06-26T05:20:23.493Z,28.75
2019-06-26T05:22:50.833Z,29.20
2019-06-26T05:25:18.285Z,29.62
2019-06-26T05:27:55.384Z,30.14
2019-06-26T05:30:23.414Z,30.35
2019-06-26T05:32:50.904Z,30.76
2019-06-26T05:35:18.631Z,31.13
2019-06-26T05:37:45.780Z,31.32
2019-06-26T05:40:14.106Z,32.10
2019-06-26T05:42:41.462Z,32.30
2019-06-26T05:45:11.695Z,32.28
2019-06-26T05:47:39.014Z,32.52
2019-06-26T05:50:08.878Z,32.92
2019-06-26T05:52:36.334Z,33.14
2019-06-26T05:55:04.256Z,33.83
2019-06-26T05:57:31.480Z,33.63
2019-06-26T05:59:58.927Z,34.11
2019-06-26T06:02:26.057Z,34.00
2019-06-26T06:04:53.483Z,34.17
2019-06-26T06:07:20.627Z,33.68
2019-06-26T06:09:47.974Z,33.69
2019-06-26T06:12:15.099Z,33.51
2019-06-26T06:14:42.238Z,33.26
2019-06-26T06:17:09.563Z,33.11
2019-06-26T06:19:36.809Z,32.72
2019-06-26T06:22:04.060Z,32.73
2019-06-26T06:24:31.308Z,32.78
2019-06-26T06:26:58.468Z,32.65
2019-06-26T06:29:25.601Z,32.89
2019-06-26T06:31:52.925Z,32.91
2019-06-26T06:34:20.080Z,32.79
2019-06-26T06:36:47.240Z,32.71
2019-06-26T06:39:14.358Z,32.62
2019-06-26T06:41:43.428Z,32.65
2019-06-26T06:44:10.660Z,32.64
2019-06-26T06:46:37.805Z,32.40
2019-06-26T06:49:05.048Z,32.33
2019-06-26T06:51:32.267Z,32.21
2019-06-26T06:53:59.438Z,32.08
2019-06-26T06:56:26.835Z,31.98
2019-06-26T06:58:54.093Z,31.95
2019-06-26T07:01:21.323Z,31.89
2019-06-26T07:03:48.554Z,31.76
2019-06-26T07:06:15.821Z,31.73
2019-06-26T07:08:42.945Z,31.64
2019-06-26T07:11:10.064Z,31.64
2019-06-26T07:13:37.895Z,31.63
2019-06-26T07:16:12.477Z,31.63
2019-06-26T07:18:42.226Z,31.69
2019-06-26T07:21:12.221Z,31.74
2019-06-26T07:23:39.519Z,31.64
2019-06-26T07:26:06.979Z,31.54
2019-06-26T07:28:34.104Z,31.47
2019-06-26T07:31:01.342Z,31.40
2019-06-26T07:33:29.497Z,31.40
2019-06-26T07:36:00.302Z,31.32
2019-06-26T07:38:30.413Z,31.23
2019-06-26T07:40:57.636Z,31.28
2019-06-26T07:43:24.787Z,31.20
2019-06-26T07:45:52.022Z,31.18
2019-06-26T07:48:19.169Z,31.09
2019-06-26T07:50:46.312Z,31.04
2019-06-26T07:53:13.438Z,31.09
2019-06-26T07:55:44.720Z,31.17
2019-06-26T07:58:11.846Z,31.21
2019-06-26T08:00:39.093Z,31.11
2019-06-26T08:03:06.323Z,31.15
2019-06-26T08:05:33.669Z,31.09
2019-06-26T08:08:01.023Z,31.06
2019-06-26T08:10:28.275Z,31.15
2019-06-26T08:12:55.382Z,31.20
2019-06-26T08:15:22.709Z,31.12
2019-06-26T08:17:59.897Z,31.16
2019-06-26T08:20:19.189Z,31.22
2019-06-26T08:22:46.306Z,31.20
2019-06-26T08:25:13.935Z,31.29
2019-06-26T08:27:41.280Z,31.26
2019-06-26T08:30:09.036Z,31.34
2019-06-26T08:32:36.241Z,31.31
2019-06-26T08:35:04.067Z,31.41
2019-06-26T08:37:36.150Z,31.49
2019-06-26T08:40:04.907Z,31.54
2019-06-26T08:42:32.053Z,31.57
2019-06-26T08:44:59.211Z,31.51
2019-06-26T08:47:26.457Z,31.55
2019-06-26T08:49:53.586Z,31.57
2019-06-26T08:52:21.119Z,31.62
2019-06-26T08:54:48.465Z,31.75
2019-06-26T08:57:15.621Z,31.89
2019-06-26T08:59:42.848Z,31.95
2019-06-26T09:02:10.206Z,32.05
2019-06-26T09:04:37.421Z,32.04
2019-06-26T09:07:04.678Z,32.15
2019-06-26T09:09:31.912Z,32.21
2019-06-26T09:11:59.132Z,32.24
2019-06-26T09:14:26.268Z,32.34
2019-06-26T09:16:53.513Z,32.38
2019-06-26T09:19:25.366Z,32.45
2019-06-26T09:21:52.619Z,32.52
2019-06-26T09:24:19.761Z,32.64
2019-06-26T09:26:47.081Z,32.65
2019-06-26T09:29:14.241Z,32.80
2019-06-26T09:31:41.447Z,32.89
2019-06-26T09:34:08.683Z,32.91
2019-06-26T09:36:35.834Z,32.99
2019-06-26T09:39:05.482Z,33.12
2019-06-26T09:41:32.615Z,33.21
2019-06-26T09:43:59.752Z,33.31
2019-06-26T09:46:27.065Z,33.39
2019-06-26T09:48:54.304Z,33.57
2019-06-26T09:51:21.668Z,33.78
2019-06-26T09:53:48.895Z,34.10
2019-06-26T09:56:16.029Z,34.55
2019-06-26T09:58:43.392Z,35.69
2019-06-26T10:01:10.820Z,36.72
2019-06-26T10:03:37.959Z,37.60
2019-06-26T10:06:05.293Z,38.50
2019-06-26T10:08:32.431Z,39.36
2019-06-26T10:10:59.566Z,39.96
2019-06-26T10:13:26.791Z,40.90
2019-06-26T10:15:54.015Z,41.49
2019-06-26T10:18:21.255Z,42.38
2019-06-26T10:20:48.526Z,43.22
2019-06-26T10:23:32.255Z,43.67
2019-06-26T10:25:59.391Z,44.43
2019-06-26T10:28:26.742Z,44.91
2019-06-26T10:30:54.366Z,45.21
2019-06-26T10:33:21.670Z,45.50
2019-06-26T10:35:49.018Z,46.35
2019-06-26T10:38:16.549Z,46.57
2019-06-26T10:40:43.868Z,46.54
2019-06-26T10:43:11.027Z,47.34
2019-06-26T10:45:43.438Z,47.38
2019-06-26T10:48:10.851Z,47.80
2019-06-26T10:50:47.931Z,47.74
2019-06-26T10:53:07.135Z,48.19
2019-06-26T10:55:34.621Z,48.80
2019-06-26T10:58:01.774Z,48.74
2019-06-26T11:00:30.905Z,48.17
2019-06-26T11:02:58.265Z,48.58
2019-06-26T11:05:25.692Z,48.74
2019-06-26T11:07:52.928Z,48.91
2019-06-26T11:10:20.606Z,49.03
2019-06-26T11:12:49.089Z,49.20
2019-06-26T11:15:17.291Z,49.76
2019-06-26T11:17:44.499Z,49.61
2019-06-26T11:20:12.061Z,49.53
2019-06-26T11:22:39.196Z,49.56
2019-06-26T11:25:07.266Z,50.04
2019-06-26T11:27:40.023Z,49.99
2019-06-26T11:30:08.484Z,49.51
2019-06-26T11:32:35.812Z,50.04
2019-06-26T11:35:04.169Z,49.76
2019-06-26T11:37:31.396Z,49.83
2019-06-26T11:39:58.528Z,49.67
2019-06-26T11:42:25.846Z,50.02
2019-06-26T11:44:52.993Z,50.03
2019-06-26T11:47:20.108Z,49.71
2019-06-26T11:49:59.346Z,49.88
2019-06-26T11:52:17.580Z,49.89
2019-06-26T11:54:44.817Z,50.19
2019-06-26T11:57:11.955Z,50.04
2019-06-26T11:59:39.418Z,49.93
2019-06-26T12:02:07.357Z,49.96
2019-06-26T12:04:34.476Z,50.09
2019-06-26T12:07:01.712Z,49.86
2019-06-26T12:09:28.877Z,49.49
2019-06-26T12:11:56.304Z,49.41
2019-06-26T12:14:23.581Z,49.49
2019-06-26T12:16:51.053Z,49.55
2019-06-26T12:19:22.331Z,49.51
2019-06-26T12:21:47.306Z,49.27
2019-06-26T12:24:14.559Z,49.24
2019-06-26T12:26:41.774Z,49.33
2019-06-26T12:29:09.004Z,49.10
2019-06-26T12:31:36.142Z,48.94
2019-06-26T12:34:03.687Z,48.99
2019-06-26T12:36:30.897Z,49.15
2019-06-26T12:38:58.137Z,49.08
2019-06-26T12:41:25.266Z,49.11
2019-06-26T12:43:52.585Z,48.85
2019-06-26T12:46:19.825Z,48.96
2019-06-26T12:48:47.086Z,48.89
2019-06-26T12:51:14.419Z,48.72
2019-06-26T12:53:41.657Z,48.58
2019-06-26T12:56:08.891Z,48.45
2019-06-26T12:58:36.238Z,48.35
2019-06-26T13:01:03.583Z,48.31
2019-06-26T13:03:30.686Z,48.34
2019-06-26T13:05:57.925Z,48.05
2019-06-26T13:08:25.270Z,47.82
2019-06-26T13:10:52.576Z,47.49
2019-06-26T13:13:19.795Z,47.50
2019-06-26T13:15:50.803Z,47.03
2019-06-26T13:18:16.203Z,46.62
2019-06-26T13:20:52.754Z,46.56
2019-06-26T13:23:14.860Z,46.32
2019-06-26T13:25:41.853Z,46.17
2019-06-26T13:28:09.202Z,45.90
2019-06-26T13:30:37.845Z,45.66
2019-06-26T13:33:05.225Z,45.45
2019-06-26T13:35:32.357Z,45.29
2019-06-26T13:37:59.487Z,45.05
2019-06-26T13:40:26.713Z,44.88
2019-06-26T13:42:53.941Z,44.66
2019-06-26T13:45:30.542Z,44.40
2019-06-26T13:47:57.337Z,44.29
2019-06-26T13:50:24.673Z,44.20
2019-06-26T13:52:52.049Z,44.08
2019-06-26T13:55:19.399Z,43.60
2019-06-26T13:57:46.630Z,43.58
2019-06-26T14:00:15.774Z,43.60
2019-06-26T14:02:43.109Z,43.60
2019-06-26T14:05:12.329Z,43.52
2019-06-26T14:07:40.487Z,43.40
2019-06-26T14:10:09.969Z,43.12
2019-06-26T14:12:37.411Z,43.17
2019-06-26T14:15:05.573Z,42.93
2019-06-26T14:17:32.803Z,42.88
2019-06-26T14:19:59.970Z,42.79
2019-06-26T14:22:27.201Z,42.82
2019-06-26T14:24:54.482Z,42.77
2019-06-26T14:27:21.570Z,42.47
2019-06-26T14:29:49.474Z,42.10
2019-06-26T14:32:16.713Z,42.09
2019-06-26T14:34:43.981Z,41.76
2019-06-26T14:37:11.130Z,41.55
2019-06-26T14:39:40.926Z,41.49
2019-06-26T14:42:07.532Z,41.25
2019-06-26T14:44:34.741Z,41.02
2019-06-26T14:47:02.308Z,40.89
2019-06-26T14:49:29.532Z,40.96
2019-06-26T14:51:56.661Z,40.86
2019-06-26T14:54:23.813Z,40.45
2019-06-26T14:56:50.940Z,40.41
2019-06-26T14:59:18.497Z,40.47
2019-06-26T15:01:49.548Z,40.41
2019-06-26T15:04:16.790Z,40.23
2019-06-26T15:06:44.029Z,40.19
2019-06-26T15:09:11.166Z,40.09
2019-06-26T15:11:38.407Z,40.02
2019-06-26T15:14:05.866Z,40.02
2019-06-26T15:16:33.090Z,39.81
2019-06-26T15:19:00.591Z,39.87
2019-06-26T15:21:27.860Z,39.79
2019-06-26T15:23:55.215Z,39.83
2019-06-26T15:26:22.455Z,39.66
2019-06-26T15:28:49.604Z,39.55
2019-06-26T15:31:16.729Z,39.60
2019-06-26T15:33:44.003Z,39.57
2019-06-26T15:36:11.134Z,39.54
2019-06-26T15:38:38.491Z,39.50
2019-06-26T15:41:05.739Z,39.48
2019-06-26T15:43:32.889Z,39.57
2019-06-26T15:46:00.245Z,39.56
2019-06-26T15:48:27.488Z,39.42
2019-06-26T15:50:54.722Z,39.38
2019-06-26T15:53:21.877Z,39.31
2019-06-26T15:55:49.016Z,39.31
2019-06-26T15:58:16.470Z,39.22
2019-06-26T16:00:44.810Z,39.16
2019-06-26T16:03:12.044Z,39.19
2019-06-26T16:05:39.185Z,39.20
2019-06-26T16:08:06.444Z,39.09
2019-06-26T16:10:34.737Z,38.96
2019-06-26T16:13:02.237Z,38.93
2019-06-26T16:15:29.512Z,38.97
2019-06-26T16:18:08.301Z,39.00
2019-06-26T16:20:35.560Z,38.84
2019-06-26T16:23:02.895Z,38.69
2019-06-26T16:25:30.137Z,38.62
2019-06-26T16:28:05.199Z,38.48
2019-06-26T16:30:26.423Z,38.66
2019-06-26T16:32:56.689Z,38.68
2019-06-26T16:35:22.801Z,38.60
2019-06-26T16:38:04.005Z,38.58
2019-06-26T16:40:31.380Z,38.58
2019-06-26T16:42:58.617Z,38.54
2019-06-26T16:45:25.757Z,38.53
2019-06-26T16:47:53.080Z,38.53
2019-06-26T16:50:20.318Z,38.53
2019-06-26T16:52:49.668Z,38.46
2019-06-26T16:55:17.476Z,38.46
2019-06-26T16:57:44.752Z,38.40
2019-06-26T17:00:15.095Z,38.36
2019-06-26T17:02:42.338Z,38.32
2019-06-26T17:05:10.568Z,38.22
2019-06-26T17:07:37.717Z,38.18
2019-06-26T17:10:06.484Z,38.00
2019-06-26T17:12:33.941Z,37.82
2019-06-26T17:15:04.152Z,37.83
2019-06-26T17:17:30.385Z,37.81
2019-06-26T17:19:57.664Z,37.67
2019-06-26T17:22:24.917Z,37.64
2019-06-26T17:24:52.153Z,37.66
2019-06-26T17:27:19.289Z,37.65
2019-06-26T17:29:46.723Z,37.54
2019-06-26T17:32:14.433Z,37.43
2019-06-26T17:34:41.581Z,37.29
2019-06-26T17:37:08.704Z,37.29
2019-06-26T17:39:35.868Z,37.10
2019-06-26T17:42:03.527Z,37.00
2019-06-26T17:44:30.750Z,36.86
2019-06-26T17:46:57.887Z,36.82
2019-06-26T17:49:25.021Z,36.82
2019-06-26T17:51:52.269Z,36.76
2019-06-26T17:54:19.986Z,36.76
2019-06-26T17:56:47.222Z,36.69
2019-06-26T17:59:14.444Z,36.63
2019-06-26T18:01:41.698Z,36.60
2019-06-26T18:04:08.930Z,36.47
2019-06-26T18:06:36.182Z,36.46
2019-06-26T18:09:06.766Z,36.45
2019-06-26T18:11:34.123Z,36.35
2019-06-26T18:14:01.469Z,36.25
2019-06-26T18:16:28.710Z,36.22
2019-06-26T18:18:55.830Z,36.16
2019-06-26T18:21:22.972Z,36.00
2019-06-26T18:23:50.114Z,36.07
2019-06-26T18:26:17.254Z,35.94
2019-06-26T18:28:44.495Z,35.87
2019-06-26T18:31:11.574Z,35.75
2019-06-26T18:33:46.316Z,35.62
2019-06-26T18:36:16.756Z,35.56
2019-06-26T18:38:43.970Z,35.61
2019-06-26T18:41:11.220Z,35.60
2019-06-26T18:43:38.454Z,35.50
2019-06-26T18:46:05.819Z,35.37
2019-06-26T18:48:37.059Z,35.37
2019-06-26T18:51:13.425Z,35.11
2019-06-26T18:53:53.025Z,35.07
2019-06-26T18:56:09.811Z,35.07
2019-06-26T18:58:36.945Z,34.95
2019-06-26T19:01:05.124Z,34.86
2019-06-26T19:03:32.372Z,34.66
2019-06-26T19:05:59.518Z,34.61
2019-06-26T19:08:26.755Z,34.49
2019-06-26T19:10:54.104Z,34.57
2019-06-26T19:13:21.248Z,34.43
2019-06-26T19:15:48.382Z,34.32
2019-06-26T19:18:15.654Z,34.29
2019-06-26T19:20:42.918Z,34.06
2019-06-26T19:23:11.949Z,34.09
2019-06-26T19:25:39.271Z,33.94
2019-06-26T19:28:06.727Z,33.82
2019-06-26T19:30:34.061Z,33.74
2019-06-26T19:33:01.319Z,33.55
2019-06-26T19:35:28.763Z,33.57
2019-06-26T19:37:55.891Z,33.38
2019-06-26T19:40:24.248Z,33.32
2019-06-26T19:42:51.788Z,33.16
2019-06-26T19:45:19.728Z,33.14
2019-06-26T19:47:47.095Z,32.95
2019-06-26T19:50:14.795Z,32.81
2019-06-26T19:52:41.996Z,32.73
2019-06-26T19:55:09.553Z,32.66
2019-06-26T19:57:36.995Z,32.46
2019-06-26T20:00:05.049Z,32.38
2019-06-26T20:02:32.344Z,32.39
2019-06-26T20:04:59.694Z,32.29
2019-06-26T20:07:28.183Z,32.22
2019-06-26T20:09:55.873Z,31.94
2019-06-26T20:12:23.107Z,31.97
2019-06-26T20:14:50.351Z,31.95
2019-06-26T20:17:17.511Z,31.87
2019-06-26T20:19:45.016Z,31.68
2019-06-26T20:22:12.761Z,31.62
2019-06-26T20:24:44.589Z,31.46
2019-06-26T20:27:09.695Z,31.41
2019-06-26T20:29:44.478Z,31.38
2019-06-26T20:32:11.611Z,31.20
2019-06-26T20:34:38.754Z,31.08
2019-06-26T20:37:06.195Z,30.98
2019-06-26T20:39:33.341Z,31.00
2019-06-26T20:42:02.045Z,30.85
2019-06-26T20:44:29.281Z,30.74
2019-06-26T20:46:56.428Z,30.67
2019-06-26T20:49:23.653Z,30.70
2019-06-26T20:51:50.799Z,30.38
2019-06-26T20:54:17.942Z,30.32
2019-06-26T20:56:45.187Z,30.30
2019-06-26T20:59:12.423Z,30.10
2019-06-26T21:01:39.641Z,30.11
2019-06-26T21:04:06.966Z,29.97
2019-06-26T21:06:34.459Z,29.96
2019-06-26T21:09:01.682Z,29.83
2019-06-26T21:11:29.034Z,29.74
2019-06-26T21:13:56.582Z,29.77
2019-06-26T21:16:23.722Z,29.70
2019-06-26T21:18:50.930Z,29.48
2019-06-26T21:21:18.119Z,29.32
2019-06-26T21:23:45.252Z,29.33
2019-06-26T21:26:12.494Z,29.30
2019-06-26T21:28:39.725Z,29.21
2019-06-26T21:31:06.864Z,29.22
2019-06-26T21:33:44.126Z,29.14
2019-06-26T21:36:11.279Z,29.04
2019-06-26T21:38:38.510Z,28.95
2019-06-26T21:41:05.679Z,28.91
2019-06-26T21:43:32.819Z,28.87
2019-06-26T21:46:00.176Z,28.88
2019-06-26T21:48:27.309Z,28.87
2019-06-26T21:50:54.538Z,28.65
2019-06-26T21:53:21.673Z,28.73
2019-06-26T21:55:48.920Z,28.53
2019-06-26T21:58:16.348Z,28.59
2019-06-26T22:00:44.310Z,28.44
2019-06-26T22:03:11.651Z,28.31
2019-06-26T22:05:39.213Z,28.46
2019-06-26T22:08:06.449Z,28.46
2019-06-26T22:10:33.802Z,28.35
2019-06-26T22:13:01.159Z,28.36
2019-06-26T22:15:39.491Z,28.23
2019-06-26T22:18:07.266Z,28.07
2019-06-26T22:20:34.608Z,27.91
2019-06-26T22:23:01.745Z,27.88
2019-06-26T22:25:29.102Z,27.88
2019-06-26T22:27:56.455Z,27.79
2019-06-26T22:30:24.187Z,27.84
2019-06-26T22:32:51.641Z,27.66
2019-06-26T22:35:19.089Z,27.72
2019-06-26T22:37:46.427Z,27.71
2019-06-26T22:40:14.215Z,27.79
2019-06-26T22:42:41.435Z,27.58
2019-06-26T22:45:09.367Z,27.57
2019-06-26T22:47:36.617Z,27.49
2019-06-26T22:50:05.009Z,27.40
2019-06-26T22:52:32.270Z,27.38
2019-06-26T22:54:59.411Z,27.40
2019-06-26T22:57:26.861Z,27.34
2019-06-26T22:59:54.003Z,27.31
2019-06-26T23:02:21.132Z,27.24
2019-06-26T23:04:48.419Z,27.23
2019-06-26T23:07:15.639Z,27.13
2019-06-26T23:09:42.899Z,27.18
2019-06-26T23:12:10.028Z,26.99
2019-06-26T23:14:37.282Z,27.02
2019-06-26T23:17:04.724Z,27.01
2019-06-26T23:19:31.951Z,27.02
2019-06-26T23:21:59.289Z,26.98
2019-06-26T23:24:26.434Z,26.88
2019-06-26T23:26:53.676Z,26.77
2019-06-26T23:29:20.826Z,26.76
2019-06-26T23:31:48.060Z,26.63
2019-06-26T23:34:15.291Z,26.68
2019-06-26T23:36:42.546Z,26.53
2019-06-26T23:39:09.801Z,26.56
2019-06-26T23:41:37.048Z,26.52
2019-06-26T23:44:04.392Z,26.51
2019-06-26T23:46:31.640Z,26.41
2019-06-26T23:48:58.760Z,26.33
2019-06-26T23:51:25.887Z,26.35
2019-06-26T23:53:53.031Z,26.30
2019-06-26T23:56:20.162Z,26.36
2019-06-26T23:58:47.312Z,26.17
